Aérodrome :
LOGIN :

S'inscrire | Disclaimer

   EN    FR    IT 

 










Légende :    VFR   VFR Marginal   IFR   IFR Intensif   IFR Très Intensif
Visi : 
Plafond : 
>= 8 km
>= 3000ft
5 à 8 km
1000 à 3000 ft
1500m à 5 km
500 à 1000 ft
800 à 1500m
200 à 500 ft
< 800m
< 200 ft
Symboles :   Orages  Brouillard  Fortes neiges  Fortes précipitations  Vent > 20 kt
SIGMETs :   Divers  Orages  Givrage  Turbulence  Onde Orograph.  Cendres Volcan.






- Altitude de l'aérodrome : 995 ft
- Code IATA : KTW


EPKT - Katowice

DERNIER METAR :
  • 221630Z 22021KT CAVOK 08/M03 Q1018

METARs EXPIRÉS :
  • 221600Z 22022KT CAVOK 08/M03 Q1017
  • 221530Z 22020KT CAVOK 08/M03 Q1018
  • 221500Z 22020G30KT CAVOK 08/M03 Q1018
  • 221430Z 22020KT CAVOK 08/M03 Q1018
  • 221400Z 22020KT CAVOK 08/M03 Q1018

TAF TAF EPKT
Valide du 22 à 12h jusqu'au 23 à 12h UTC


221130Z 2212/2312 22018G28KT CAVOK
TEMPO 2212/2222 22022G38KT
BECMG 2303/2305 BKN014
BECMG 2305/2307 27010KT
TEMPO 2307/2312 4000 RA BR BKN008 OVC014



MET'MAP, la Météo Aéronautique d'un coup d'oeil ! - Copyright ORBIFLY Décembre 2007 - Disclaimer

ORBIFLY MET'MAP TEAM :

Programmation & Développement : Alexandra Zaïnal
Sur une idée originale de : Baudouin d'Aumeries
Assistance à la programmation : Marc-Olivier Méhu
Soutien technique & logistique : Manuel Goepfert

Contact : metmap@orbifly.com




SOURCES & CREDITS :

   NOAA